Time;durP1;ratioP1;P1;durP2;ratioP2;P2;SDS_P1;SDS_P2;PMS_P1;PMS_P2;Temp;Humidity;BMP_temperature;BMP_pressure;BME280_temperature;BME280_humidity;BME280_pressure;Samples;Min_cycle;Max_cycle;Signal;HPM_P1;HPM_P2
2022/12/03 00:02:24;;;;;;;19.10;14.07;;;;;;;40.92;34.03;100738.28;6274786;22;20439;-72
2022/12/03 00:04:50;;;;;;;26.17;16.07;;;;;;;40.36;34.76;100729.41;6274706;22;20232;-73
2022/12/03 00:07:16;;;;;;;18.03;14.10;;;;;;;40.81;33.92;100739.75;6274923;22;20374;-74
2022/12/03 00:09:42;;;;;;;28.53;16.33;;;;;;;41.25;33.57;100721.22;6274621;22;20737;-74
2022/12/03 00:12:08;;;;;;;22.07;13.73;;;;;;;41.16;33.86;100724.03;6276776;22;20846;-74
2022/12/03 00:14:34;;;;;;;20.40;12.47;;;;;;;41.23;33.26;100723.50;6274847;22;20396;-72
2022/12/03 00:17:00;;;;;;;22.40;13.67;;;;;;;40.99;33.87;100710.53;6274662;22;20377;-72
2022/12/03 00:19:26;;;;;;;19.57;14.10;;;;;;;41.20;33.65;100711.34;6276711;22;20447;-72
2022/12/03 00:21:52;;;;;;;16.33;12.27;;;;;;;41.03;33.32;100712.28;6274764;22;20870;-72
2022/12/03 00:24:18;;;;;;;23.33;14.30;;;;;;;41.03;33.59;100717.72;6274691;22;20437;-74
2022/12/03 00:26:44;;;;;;;28.23;12.87;;;;;;;41.06;33.53;100713.53;6274715;22;20388;-74
2022/12/03 00:29:10;;;;;;;20.93;14.50;;;;;;;41.21;33.32;100712.94;6276535;22;20401;-72
2022/12/03 00:31:36;;;;;;;22.00;15.40;;;;;;;41.24;33.18;100711.47;6274411;22;20440;-72
2022/12/03 00:34:02;;;;;;;23.47;14.17;;;;;;;41.04;33.93;100696.75;6274313;22;20177;-71
2022/12/03 00:36:28;;;;;;;23.03;13.50;;;;;;;41.01;34.05;100705.59;6274605;22;20385;-72
2022/12/03 00:38:53;;;;;;;18.00;15.83;;;;;;;40.76;34.34;100710.84;6274498;22;20391;-72
2022/12/03 00:41:19;;;;;;;22.67;15.10;;;;;;;40.97;34.06;100705.44;6274692;22;20405;-72
2022/12/03 00:43:45;;;;;;;19.50;15.00;;;;;;;40.69;34.64;100702.38;6274419;22;20413;-72
2022/12/03 00:46:11;;;;;;;21.53;15.10;;;;;;;41.07;34.06;100701.53;6274477;22;20396;-71
2022/12/03 00:48:37;;;;;;;20.47;14.23;;;;;;;41.10;34.00;100705.50;6274372;22;20797;-72
2022/12/03 00:51:03;;;;;;;19.90;14.23;;;;;;;40.67;34.88;100704.66;6274752;22;20882;-74
2022/12/03 00:53:29;;;;;;;22.53;12.93;;;;;;;41.23;33.58;100693.56;6274300;22;20154;-72
2022/12/03 00:55:55;;;;;;;23.53;15.30;;;;;;;41.41;33.59;100692.31;6276124;22;20892;-72
2022/12/03 00:58:21;;;;;;;22.23;13.63;;;;;;;41.38;33.51;100698.44;6274462;22;20386;-72
2022/12/03 01:00:47;;;;;;;19.30;14.40;;;;;;;41.07;33.89;100702.34;6273875;22;20413;-72
2022/12/03 01:03:13;;;;;;;26.60;15.27;;;;;;;40.81;33.81;100691.59;6274371;22;20389;-73
2022/12/03 01:05:39;;;;;;;20.10;13.10;;;;;;;41.10;34.06;100700.06;6273920;22;20926;-72
2022/12/03 01:08:05;;;;;;;25.27;13.37;;;;;;;41.36;33.76;100702.59;6274366;22;20877;-72
2022/12/03 01:10:31;;;;;;;27.77;15.13;;;;;;;40.83;34.88;100698.66;6274324;22;20475;-73
2022/12/03 01:12:57;;;;;;;24.00;14.50;;;;;;;41.01;34.38;100703.66;6275932;22;20401;-73
2022/12/03 01:15:23;;;;;;;42.33;16.67;;;;;;;40.99;34.38;100694.22;6274249;22;20388;-72
2022/12/03 01:17:49;;;;;;;20.90;12.93;;;;;;;40.11;35.11;100684.91;6274137;22;20388;-72
2022/12/03 01:20:15;;;;;;;27.80;14.60;;;;;;;40.48;34.64;100685.25;6274198;22;20401;-72
2022/12/03 01:22:41;;;;;;;25.67;12.37;;;;;;;40.22;35.79;100682.63;6274334;22;20462;-72
2022/12/03 01:25:07;;;;;;;20.67;14.00;;;;;;;40.11;35.78;100676.75;6273953;22;20463;-73
2022/12/03 01:27:33;;;;;;;22.53;15.93;;;;;;;40.17;35.56;100664.59;6274152;22;20402;-74
2022/12/03 01:29:59;;;;;;;30.73;15.43;;;;;;;40.51;35.13;100679.94;6274156;22;20853;-74
2022/12/03 01:32:25;;;;;;;41.23;15.33;;;;;;;40.30;35.87;100679.06;6275581;22;21016;-72
2022/12/03 01:34:53;;;;;;;26.53;13.13;;;;;;;40.55;35.32;100670.00;6248838;22;20377;-72
2022/12/03 01:37:22;;;;;;;30.77;14.30;;;;;;;40.46;35.01;100682.03;6248533;22;20395;-72
2022/12/03 01:39:48;;;;;;;20.50;15.13;;;;;;;40.78;35.26;100677.88;6248639;22;20381;-73
2022/12/03 01:42:26;;;;;;;18.20;12.63;;;;;;;40.28;35.47;100673.19;6248403;22;20717;-72
2022/12/03 01:44:55;;;;;;;25.80;14.60;;;;;;;40.16;35.77;100671.16;6248221;22;20508;-72
2022/12/03 01:47:26;;;;;;;17.33;13.63;;;;;;;40.29;35.13;100661.19;6249965;22;20864;-73
2022/12/03 01:50:30;;;;;;;24.40;14.30;;;;;;;40.31;35.17;100667.06;6250566;22;20483;-72
2022/12/03 01:53:00;;;;;;;23.63;15.77;;;;;;;40.55;35.29;100661.06;6247263;22;20817;-73
2022/12/03 01:55:27;;;;;;;18.07;15.20;;;;;;;40.84;34.56;100656.72;6250346;22;20464;-72
2022/12/03 01:57:59;;;;;;;28.73;14.60;;;;;;;40.64;34.98;100658.28;6250309;22;20412;-73
2022/12/03 02:00:27;;;;;;;26.87;14.07;;;;;;;40.62;35.15;100653.16;6250513;22;20385;-73
2022/12/03 02:02:59;;;;;;;18.47;14.40;;;;;;;41.01;34.14;100648.47;6250546;22;20405;-72
2022/12/03 02:05:30;;;;;;;16.50;11.90;;;;;;;40.80;34.75;100651.94;6250403;22;20457;-73
2022/12/03 02:07:57;;;;;;;18.43;14.40;;;;;;;40.65;34.83;100652.53;6250116;22;20499;-73
2022/12/03 02:10:33;;;;;;;23.80;15.20;;;;;;;41.02;33.92;100660.94;6250529;22;20761;-73
2022/12/03 02:13:06;;;;;;;24.87;15.17;;;;;;;41.27;34.07;100657.19;6250199;22;20483;-72
2022/12/03 02:15:33;;;;;;;24.30;12.70;;;;;;;41.18;33.75;100658.38;6250445;22;20373;-75
2022/12/03 02:18:00;;;;;;;23.60;13.70;;;;;;;41.02;34.14;100663.66;6250269;22;20842;-73
2022/12/03 02:20:26;;;;;;;17.47;12.33;;;;;;;40.77;34.44;100665.41;6250256;22;20406;-72
2022/12/03 02:22:59;;;;;;;19.60;14.00;;;;;;;41.24;33.70;100657.84;6250251;22;20384;-71
2022/12/03 02:25:33;;;;;;;18.17;14.53;;;;;;;41.08;34.24;100659.59;6250002;22;20523;-72
2022/12/03 02:28:00;;;;;;;20.83;13.53;;;;;;;41.25;33.62;100659.44;6250146;22;20392;-72
2022/12/03 02:30:28;;;;;;;19.83;16.33;;;;;;;41.12;33.54;100665.94;6250271;22;20813;-72
2022/12/03 02:32:55;;;;;;;27.40;13.90;;;;;;;41.21;33.65;100672.13;6270669;22;20512;-73
2022/12/03 02:35:27;;;;;;;22.87;12.73;;;;;;;41.03;34.45;100674.19;6275492;22;20865;-73
2022/12/03 02:38:09;;;;;;;22.10;15.10;;;;;;;40.75;34.83;100670.34;6275591;22;20858;-73
2022/12/03 02:40:36;;;;;;;27.00;14.10;;;;;;;41.13;34.00;100666.75;6275542;22;20885;-74
2022/12/03 02:43:03;;;;;;;15.73;11.53;;;;;;;40.79;34.86;100668.59;6275753;22;20734;-74
2022/12/03 02:45:33;;;;;;;21.80;13.53;;;;;;;40.92;35.14;100666.75;6275394;22;20421;-74
2022/12/03 02:48:22;;;;;;;23.13;12.10;;;;;;;41.01;34.88;100665.56;6275680;22;20410;-72
2022/12/03 02:50:52;;;;;;;33.53;14.93;;;;;;;41.04;34.54;100664.09;6275404;22;20416;-73
2022/12/03 02:53:23;;;;;;;18.50;12.53;;;;;;;40.99;34.48;100667.03;6275652;22;20414;-72
2022/12/03 02:55:51;;;;;;;18.20;12.27;;;;;;;41.04;34.48;100658.66;6277281;22;20389;-72
2022/12/03 02:58:18;;;;;;;23.47;13.17;;;;;;;41.22;34.02;100656.59;6275461;22;20389;-73
2022/12/03 03:00:45;;;;;;;23.70;14.27;;;;;;;41.21;34.04;100658.53;6275395;22;20848;-73
2022/12/03 03:03:12;;;;;;;21.03;15.23;;;;;;;41.14;34.33;100655.53;6277270;22;20402;-73
2022/12/03 03:05:40;;;;;;;21.87;13.27;;;;;;;41.22;34.30;100656.59;6275195;22;20559;-72
2022/12/03 03:08:07;;;;;;;19.83;13.37;;;;;;;41.19;33.77;100659.97;6275494;22;20527;-72
2022/12/03 03:10:36;;;;;;;22.87;12.23;;;;;;;41.01;34.33;100662.06;6275385;22;20500;-73
2022/12/03 03:13:10;;;;;;;21.87;13.93;;;;;;;41.02;34.31;100658.22;6275417;22;20382;-72
2022/12/03 03:15:37;;;;;;;19.23;11.30;;;;;;;40.81;34.85;100658.94;6277451;22;20366;-72
2022/12/03 03:18:04;;;;;;;22.77;12.90;;;;;;;40.68;34.56;100651.06;6275278;22;20471;-74
2022/12/03 03:20:30;;;;;;;22.67;13.90;;;;;;;40.81;34.61;100650.78;6275412;22;20450;-74
2022/12/03 03:23:10;;;;;;;18.60;13.67;;;;;;;41.18;34.22;100655.66;6275148;22;20389;-72
2022/12/03 03:25:41;;;;;;;15.90;12.30;;;;;;;41.08;33.86;100654.16;6275122;22;20445;-72
2022/12/03 03:28:07;;;;;;;17.63;12.03;;;;;;;40.95;33.89;100652.50;6275220;22;20431;-72
2022/12/03 03:30:36;;;;;;;23.63;14.30;;;;;;;40.98;34.28;100657.28;6275223;22;20385;-74
2022/12/03 03:33:02;;;;;;;16.10;12.07;;;;;;;40.53;34.94;100655.97;6274902;22;20941;-74
2022/12/03 03:35:28;;;;;;;34.03;14.57;;;;;;;40.38;34.92;100658.41;6275087;22;20378;-72
2022/12/03 03:37:55;;;;;;;18.87;12.87;;;;;;;40.54;34.63;100665.69;6275002;22;20471;-72
2022/12/03 03:40:21;;;;;;;18.00;12.80;;;;;;;40.46;34.72;100679.31;6275118;22;20927;-72
2022/12/03 03:42:48;;;;;;;19.30;13.80;;;;;;;41.08;34.41;100670.47;6249536;22;20406;-74
2022/12/03 03:45:14;;;;;;;29.57;13.37;;;;;;;40.82;34.33;100667.91;6274979;22;20425;-74
2022/12/03 03:47:41;;;;;;;38.73;15.20;;;;;;;40.63;34.51;100670.28;6275015;22;20881;-74
2022/12/03 03:50:09;;;;;;;19.70;14.27;;;;;;;40.79;34.70;100674.03;6274978;22;20423;-73
2022/12/03 03:52:37;;;;;;;24.27;13.20;;;;;;;40.31;35.55;100674.44;6274902;22;20413;-72
2022/12/03 03:55:03;;;;;;;18.00;13.30;;;;;;;40.58;34.85;100668.56;6275041;22;20377;-72
2022/12/03 03:57:29;;;;;;;22.93;13.73;;;;;;;40.97;34.47;100661.13;6274962;22;20401;-74
2022/12/03 03:59:57;;;;;;;24.33;13.80;;;;;;;40.95;34.23;100669.63;6274926;22;20865;-74
2022/12/03 04:02:26;;;;;;;21.70;12.30;;;;;;;41.18;34.44;100670.06;6274998;22;20386;-71
2022/12/03 04:04:52;;;;;;;30.13;14.90;;;;;;;40.71;35.11;100667.53;6274479;22;20979;-72
2022/12/03 04:07:19;;;;;;;19.73;11.60;;;;;;;40.74;34.79;100669.56;6274818;22;20719;-74
2022/12/03 04:09:45;;;;;;;25.00;14.80;;;;;;;40.66;35.11;100680.50;6276384;22;20408;-74
2022/12/03 04:14:56;;;;;;;21.07;13.40;;;;;;;40.47;35.63;100676.28;6276315;22;20404;-72
2022/12/03 04:17:22;;;;;;;26.37;14.50;;;;;;;40.17;35.97;100667.31;6274796;22;20377;-72
2022/12/03 04:19:48;;;;;;;19.30;12.43;;;;;;;40.20;35.95;100658.47;6274777;22;20445;-72
2022/12/03 04:30:28;;;;;;;17.33;13.17;;;;;;;40.07;36.17;100659.50;6276277;22;20536;-74
2022/12/03 04:35:42;;;;;;;16.73;12.00;;;;;;;40.47;36.02;100656.44;6276210;22;20407;-74
2022/12/03 04:38:13;;;;;;;17.47;12.00;;;;;;;40.37;35.85;100668.47;6274597;22;20927;-72
2022/12/03 04:43:23;;;;;;;32.57;14.90;;;;;;;40.36;36.11;100666.09;6276072;22;20840;-72
2022/12/03 04:45:49;;;;;;;32.23;15.97;;;;;;;40.31;36.08;100649.97;6276437;22;20409;-72
2022/12/03 04:48:15;;;;;;;23.93;13.97;;;;;;;40.80;34.71;100648.41;6273970;22;20475;-73
2022/12/03 04:50:41;;;;;;;18.30;13.30;;;;;;;40.72;35.55;100646.56;6274381;22;20382;-72
2022/12/03 04:53:07;;;;;;;32.80;12.20;;;;;;;40.81;35.22;100642.63;6274408;22;20902;-73
2022/12/03 04:55:33;;;;;;;22.67;14.20;;;;;;;40.98;34.51;100649.09;6274108;22;20405;-71
2022/12/03 04:57:59;;;;;;;27.83;15.67;;;;;;;40.49;35.54;100635.19;6274334;22;20409;-72
2022/12/03 05:00:25;;;;;;;25.27;14.03;;;;;;;40.37;36.69;100632.34;6274419;22;20385;-73
2022/12/03 05:02:51;;;;;;;18.73;12.70;;;;;;;40.56;36.07;100640.91;6274027;22;20737;-74
2022/12/03 05:05:17;;;;;;;31.33;15.00;;;;;;;40.56;35.90;100643.59;6274141;22;20436;-72
2022/12/03 05:07:43;;;;;;;22.77;12.90;;;;;;;40.59;36.07;100642.19;6274286;22;20397;-71
2022/12/03 05:10:10;;;;;;;20.27;11.67;;;;;;;40.00;37.52;100649.13;6274160;22;20408;-72
2022/12/03 05:12:36;;;;;;;17.50;12.10;;;;;;;40.26;36.83;100661.81;6274268;22;20412;-72
2022/12/03 05:15:03;;;;;;;38.53;12.10;;;;;;;40.03;37.66;100650.41;6274163;22;20402;-74
2022/12/03 05:17:29;;;;;;;21.07;11.40;;;;;;;40.50;36.52;100653.88;6274064;22;20382;-74
2022/12/03 05:22:39;;;;;;;22.93;12.00;;;;;;;40.55;36.62;100647.47;6275950;22;20365;-74
2022/12/03 05:25:05;;;;;;;18.43;11.03;;;;;;;40.61;36.12;100646.16;6273568;22;20425;-72
2022/12/03 05:27:31;;;;;;;16.57;10.93;;;;;;;40.39;36.43;100657.28;6274224;22;20388;-72
2022/12/03 05:29:57;;;;;;;18.67;11.87;;;;;;;40.38;36.45;100659.19;6274232;22;20381;-72
2022/12/03 05:32:23;;;;;;;24.17;12.77;;;;;;;40.34;36.54;100661.00;6274021;22;20436;-73
2022/12/03 05:34:49;;;;;;;25.47;13.00;;;;;;;40.73;36.15;100650.88;6274033;22;20772;-73
2022/12/03 05:37:15;;;;;;;16.50;10.77;;;;;;;40.53;36.15;100657.88;6274073;22;20377;-72
2022/12/03 05:39:41;;;;;;;29.37;14.37;;;;;;;40.37;36.48;100664.97;6274157;22;20377;-72
2022/12/03 05:44:53;;;;;;;26.17;12.20;;;;;;;39.99;37.07;100671.97;6275477;22;20920;-72
2022/12/03 05:47:19;;;;;;;23.73;13.00;;;;;;;40.31;36.37;100675.22;6276257;22;20358;-73
2022/12/03 05:49:45;;;;;;;28.10;12.83;;;;;;;40.44;36.28;100667.97;6273990;22;20727;-72
2022/12/03 05:52:11;;;;;;;22.20;11.83;;;;;;;40.64;35.64;100682.75;6274084;22;20468;-72
2022/12/03 05:54:37;;;;;;;18.03;12.80;;;;;;;40.10;36.52;100688.75;6273819;22;20393;-72
2022/12/03 05:57:03;;;;;;;26.77;13.93;;;;;;;40.37;36.43;100687.50;6273928;22;20408;-72
2022/12/03 05:59:29;;;;;;;24.03;12.63;;;;;;;40.78;35.42;100688.75;6273754;22;20385;-74
2022/12/03 06:01:55;;;;;;;23.83;14.07;;;;;;;40.45;35.93;100692.09;6273989;22;20393;-72
2022/12/03 06:04:21;;;;;;;27.13;14.80;;;;;;;40.84;35.97;100702.97;6273617;22;20431;-72
2022/12/03 06:07:02;;;;;;;21.50;12.37;;;;;;;40.64;36.39;100704.50;6223954;22;20463;-72
2022/12/03 06:09:28;;;;;;;37.27;16.07;;;;;;;40.31;37.02;100704.31;6273652;22;20385;-72
2022/12/03 06:11:54;;;;;;;26.03;14.43;;;;;;;40.51;36.64;100717.19;6273746;22;20416;-71
2022/12/03 06:14:20;;;;;;;31.83;13.93;;;;;;;40.62;36.70;100712.19;6273704;22;20413;-71
2022/12/03 06:16:46;;;;;;;29.80;14.33;;;;;;;40.68;36.76;100724.47;6273738;22;20383;-71
2022/12/03 06:19:12;;;;;;;30.80;13.27;;;;;;;40.65;36.18;100709.63;6275572;22;20360;-72
2022/12/03 06:21:38;;;;;;;31.40;17.37;;;;;;;40.52;36.70;100724.25;6273758;22;20718;-72
2022/12/03 06:24:04;;;;;;;20.60;12.63;;;;;;;40.80;36.07;100728.06;6273422;22;20421;-71
2022/12/03 06:26:30;;;;;;;20.10;13.20;;;;;;;40.55;36.27;100724.38;6273519;22;20147;-71
2022/12/03 06:28:56;;;;;;;29.27;15.43;;;;;;;40.50;36.92;100738.16;6275541;22;20710;-72
2022/12/03 06:31:22;;;;;;;34.60;13.57;;;;;;;40.48;36.61;100737.69;6273452;22;20436;-72
2022/12/03 06:33:48;;;;;;;27.43;14.87;;;;;;;40.33;36.37;100732.78;6275565;22;20397;-71
2022/12/03 06:36:14;;;;;;;33.53;15.50;;;;;;;40.26;36.34;100737.91;6275951;22;20381;-72
2022/12/03 06:38:40;;;;;;;25.30;14.37;;;;;;;40.90;36.00;100740.53;6275901;22;20411;-74
2022/12/03 06:41:06;;;;;;;23.90;13.70;;;;;;;40.94;35.58;100751.53;6275379;22;20417;-71
2022/12/03 06:43:32;;;;;;;18.20;12.47;;;;;;;40.80;35.51;100751.75;6275080;22;20439;-71
2022/12/03 06:45:58;;;;;;;26.27;16.63;;;;;;;41.20;34.89;100756.84;6275511;22;20425;-71
2022/12/03 06:48:24;;;;;;;20.80;12.53;;;;;;;40.84;35.43;100755.44;6275181;22;20851;-72
2022/12/03 06:50:50;;;;;;;28.33;14.80;;;;;;;39.83;37.22;100757.81;6275184;22;20463;-74
2022/12/03 06:53:16;;;;;;;25.60;13.33;;;;;;;40.26;36.30;100770.53;6275563;22;20382;-73
2022/12/03 06:55:42;;;;;;;25.50;13.27;;;;;;;40.42;36.26;100768.88;6275708;22;20457;-74
2022/12/03 06:58:08;;;;;;;29.40;13.10;;;;;;;40.67;35.86;100777.28;6275478;22;20510;-74
2022/12/03 07:00:34;;;;;;;25.50;15.00;;;;;;;40.87;35.46;100781.16;6275327;22;20854;-72
2022/12/03 07:03:00;;;;;;;26.33;12.90;;;;;;;40.92;35.66;100787.25;6272925;22;20151;-72
2022/12/03 07:05:25;;;;;;;29.03;14.40;;;;;;;40.00;36.93;100789.56;6273706;22;20917;-72
2022/12/03 07:07:54;;;;;;;23.63;15.13;;;;;;;40.26;36.17;100793.06;6274574;22;20385;-72
2022/12/03 07:10:20;;;;;;;18.70;13.20;;;;;;;40.49;36.32;100798.31;6274505;22;20437;-72
2022/12/03 07:12:46;;;;;;;21.60;14.40;;;;;;;40.24;36.71;100798.03;6275337;22;20377;-72
2022/12/03 07:15:12;;;;;;;18.30;12.30;;;;;;;40.10;36.61;100802.06;6274368;22;20374;-73
2022/12/03 07:17:39;;;;;;;16.07;12.43;;;;;;;40.74;35.96;100813.72;6274843;22;20393;-78
2022/12/03 07:20:07;;;;;;;37.30;17.80;;;;;;;40.83;35.49;100827.28;6273812;22;20842;-79
2022/12/03 07:22:33;;;;;;;21.53;13.60;;;;;;;40.90;35.26;100816.72;6273453;22;20418;-73
2022/12/03 07:24:59;;;;;;;17.57;12.97;;;;;;;40.68;35.12;100819.66;6274731;22;20421;-73
2022/12/03 07:27:25;;;;;;;21.53;14.07;;;;;;;40.88;34.79;100823.56;6274847;22;20378;-73
2022/12/03 07:29:51;;;;;;;26.77;12.70;;;;;;;40.48;35.68;100835.56;6275006;22;20386;-73
2022/12/03 07:32:17;;;;;;;21.13;13.63;;;;;;;40.55;36.01;100838.56;6274387;22;20437;-71
2022/12/03 07:34:43;;;;;;;16.60;12.37;;;;;;;40.86;35.15;100836.69;6274458;22;20865;-74
2022/12/03 07:37:09;;;;;;;20.73;13.00;;;;;;;40.97;35.30;100835.25;6276858;22;20396;-72
2022/12/03 07:39:35;;;;;;;18.17;11.40;;;;;;;40.99;34.95;100847.38;6274528;22;20382;-72
2022/12/03 07:42:01;;;;;;;27.37;15.13;;;;;;;41.20;34.82;100849.38;6274352;22;20392;-73
2022/12/03 07:44:30;;;;;;;20.83;13.67;;;;;;;40.98;34.86;100853.94;6273742;22;20426;-74
2022/12/03 07:46:56;;;;;;;25.80;12.63;;;;;;;40.48;35.53;100856.53;6273916;22;20404;-74
2022/12/03 07:49:22;;;;;;;22.67;14.10;;;;;;;40.48;35.56;100859.25;6272678;22;20388;-78
2022/12/03 07:51:53;;;;;;;21.63;13.80;;;;;;;40.76;35.07;100867.78;6273564;22;20415;-80
2022/12/03 07:54:23;;;;;;;17.60;13.70;;;;;;;41.21;34.20;100870.81;6274311;22;20386;-78
2022/12/03 07:56:49;;;;;;;26.83;12.77;;;;;;;41.42;33.55;100875.50;6276475;22;20436;-78
2022/12/03 07:59:18;;;;;;;24.50;14.07;;;;;;;41.19;33.88;100873.06;6274826;22;20921;-79
2022/12/03 08:01:44;;;;;;;22.70;13.67;;;;;;;40.83;34.27;100870.81;6274653;22;20389;-78
2022/12/03 08:04:17;;;;;;;15.90;11.40;;;;;;;41.00;34.09;100864.50;6274136;22;20486;-78
2022/12/03 08:06:43;;;;;;;28.97;14.13;;;;;;;41.12;33.80;100872.75;6272568;22;20381;-73
2022/12/03 08:09:08;;;;;;;24.23;12.53;;;;;;;41.20;33.52;100885.53;6276055;22;20422;-75
2022/12/03 08:11:35;;;;;;;22.90;11.53;;;;;;;41.49;33.29;100886.66;6274158;22;20464;-78
2022/12/03 08:14:06;;;;;;;26.50;16.53;;;;;;;41.50;33.61;100889.09;6274116;22;20389;-76
2022/12/03 08:16:37;;;;;;;18.33;12.83;;;;;;;40.60;34.36;100877.59;6274501;22;20736;-72
2022/12/03 08:19:08;;;;;;;16.50;11.73;;;;;;;40.82;34.85;100890.94;6274214;22;20486;-75
2022/12/03 08:21:35;;;;;;;21.63;12.63;;;;;;;41.24;34.12;100864.69;6274806;22;20383;-73
2022/12/03 08:24:21;;;;;;;23.90;11.67;;;;;;;41.85;32.99;100881.47;6276763;22;20369;-73
2022/12/03 08:26:48;;;;;;;17.27;12.57;;;;;;;41.50;33.33;100874.66;6273703;22;20389;-76
2022/12/03 08:29:17;;;;;;;22.97;11.40;;;;;;;41.53;33.24;100865.81;6274615;22;20388;-76
2022/12/03 08:31:50;;;;;;;26.03;13.00;;;;;;;41.72;33.14;100868.09;6274307;22;20527;-75
2022/12/03 08:34:18;;;;;;;20.97;12.10;;;;;;;40.46;35.03;100864.19;6274672;22;20447;-77
2022/12/03 08:36:46;;;;;;;20.43;14.50;;;;;;;41.30;33.83;100868.81;6274767;22;20412;-77
2022/12/03 08:39:32;;;;;;;24.17;13.50;;;;;;;41.43;33.62;100871.66;6274641;22;20413;-71
2022/12/03 08:44:55;;;;;;;18.10;11.53;;;;;;;40.98;34.45;100872.19;6275904;22;20455;-73
2022/12/03 08:47:22;;;;;;;26.93;13.80;;;;;;;41.16;34.05;100868.28;6274683;22;20863;-73
2022/12/03 08:50:00;;;;;;;25.20;12.17;;;;;;;41.57;33.43;100877.66;6274198;22;20464;-74
2022/12/03 08:52:33;;;;;;;21.23;11.30;;;;;;;41.48;33.70;100866.03;6274509;22;20730;-71
2022/12/03 08:55:21;;;;;;;20.43;11.30;;;;;;;41.74;33.18;100866.66;6274078;22;20792;-73
2022/12/03 08:57:47;;;;;;;16.07;12.50;;;;;;;41.28;33.96;100859.41;6274084;22;20405;-73
2022/12/03 09:00:22;;;;;;;26.50;13.60;;;;;;;40.86;34.87;100859.25;6274541;22;20382;-71
2022/12/03 09:02:53;;;;;;;18.60;11.97;;;;;;;41.43;33.66;100855.31;6274383;22;20468;-70
2022/12/03 09:05:31;;;;;;;18.23;13.13;;;;;;;41.34;33.92;100855.38;6274163;22;20444;-72
2022/12/03 09:07:57;;;;;;;25.33;14.17;;;;;;;41.23;33.59;100849.50;6273865;22;20390;-71
2022/12/03 09:10:23;;;;;;;22.33;14.40;;;;;;;41.52;33.72;100856.06;6274092;22;20406;-71
2022/12/03 09:12:49;;;;;;;21.93;13.43;;;;;;;41.36;33.59;100855.84;6274146;22;20378;-73
2022/12/03 09:15:15;;;;;;;28.10;15.03;;;;;;;41.15;34.29;100847.63;6273971;22;20154;-74
2022/12/03 09:17:40;;;;;;;24.23;13.23;;;;;;;41.55;33.52;100842.56;6247869;22;20444;-74
2022/12/03 09:20:07;;;;;;;18.10;11.13;;;;;;;41.93;32.92;100829.94;6248483;22;20386;-73
2022/12/03 09:22:33;;;;;;;27.73;15.47;;;;;;;41.64;33.37;100830.84;6248168;22;20618;-75
2022/12/03 09:24:59;;;;;;;20.73;13.63;;;;;;;41.74;33.17;100827.69;6248387;22;20506;-75
2022/12/03 09:27:25;;;;;;;22.53;13.50;;;;;;;41.86;32.82;100820.38;6248590;22;20385;-73
2022/12/03 09:29:50;;;;;;;24.87;14.73;;;;;;;42.18;32.88;100815.31;6247730;22;20381;-73
2022/12/03 09:32:16;;;;;;;16.80;11.67;;;;;;;42.17;32.72;100810.97;6247280;22;20381;-70
2022/12/03 09:34:42;;;;;;;22.00;12.57;;;;;;;42.20;32.52;100823.94;6247064;22;20392;-71
2022/12/03 09:37:09;;;;;;;22.53;14.27;;;;;;;42.24;32.63;100826.81;6247918;22;20865;-71
2022/12/03 09:39:37;;;;;;;27.40;14.90;;;;;;;42.24;32.51;100813.19;6248337;22;20382;-78
2022/12/03 09:42:03;;;;;;;28.73;12.90;;;;;;;42.06;32.85;100824.22;6223483;22;20394;-72
2022/12/03 09:44:31;;;;;;;29.00;17.30;;;;;;;42.30;32.45;100815.34;6248224;22;20439;-72
2022/12/03 09:46:59;;;;;;;22.27;12.70;;;;;;;42.10;32.63;100810.72;6247988;22;20527;-71
2022/12/03 09:49:26;;;;;;;25.03;12.80;;;;;;;42.30;32.51;100812.63;6248139;22;20385;-71
2022/12/03 09:51:55;;;;;;;18.17;12.30;;;;;;;42.11;32.80;100815.84;6246746;22;20385;-77
2022/12/03 09:54:25;;;;;;;13.97;10.80;;;;;;;42.09;32.67;100811.84;6248144;22;20384;-77
2022/12/03 09:56:52;;;;;;;16.30;12.23;;;;;;;41.65;32.86;100808.69;6246791;22;20413;-74
2022/12/03 09:59:19;;;;;;;18.63;13.10;;;;;;;41.79;32.88;100814.69;6248479;22;20389;-75
2022/12/03 10:01:45;;;;;;;20.83;12.87;;;;;;;41.47;33.27;100823.59;6248125;22;20392;-76
2022/12/03 10:04:11;;;;;;;19.63;11.57;;;;;;;41.43;33.74;100806.31;6246888;22;20433;-71
2022/12/03 10:06:39;;;;;;;24.83;14.37;;;;;;;41.84;33.69;100811.75;6248551;22;20839;-74
2022/12/03 10:09:05;;;;;;;17.03;12.50;;;;;;;42.13;32.62;100802.66;6250379;22;20381;-74
2022/12/03 10:11:34;;;;;;;18.30;11.57;;;;;;;42.23;32.81;100800.66;6250552;22;20475;-75
2022/12/03 10:14:00;;;;;;;19.00;11.80;;;;;;;42.08;32.69;100794.69;6249871;22;20691;-75
2022/12/03 10:16:29;;;;;;;24.00;13.53;;;;;;;42.08;33.02;100791.97;6249615;22;20447;-75
2022/12/03 10:18:58;;;;;;;21.43;12.00;;;;;;;42.52;32.73;100788.78;6249734;22;20389;-75
2022/12/03 10:21:30;;;;;;;17.90;12.97;;;;;;;42.36;32.29;100792.19;6249642;22;20465;-73
2022/12/03 10:24:19;;;;;;;21.03;13.37;;;;;;;42.41;32.69;100785.69;6250220;22;20419;-75
2022/12/03 10:26:47;;;;;;;27.83;13.60;;;;;;;42.32;32.70;100788.53;6281804;22;20354;-77
2022/12/03 10:29:17;;;;;;;15.63;12.33;;;;;;;42.22;32.65;100780.78;6250270;22;20464;-75
2022/12/03 10:31:43;;;;;;;22.50;13.57;;;;;;;42.28;32.34;100782.16;6250140;22;20378;-75
2022/12/03 10:34:10;;;;;;;23.73;12.80;;;;;;;42.51;32.42;100773.56;6249417;22;20384;-75
2022/12/03 10:36:36;;;;;;;23.67;13.10;;;;;;;42.37;32.28;100779.34;6250640;22;20405;-74
2022/12/03 10:39:12;;;;;;;20.20;10.23;;;;;;;42.36;32.37;100773.09;6250229;22;20842;-74
2022/12/03 10:41:40;;;;;;;32.03;13.07;;;;;;;42.21;32.69;100770.22;6277573;22;20841;-74
2022/12/03 10:44:16;;;;;;;23.50;11.30;;;;;;;41.92;32.94;100771.94;6248527;22;20385;-77
2022/12/03 10:46:42;;;;;;;14.53;9.87;;;;;;;41.93;33.24;100778.19;6275273;22;20382;-76
2022/12/03 10:49:14;;;;;;;18.10;9.80;;;;;;;42.08;33.04;100762.00;6247222;22;20409;-77
2022/12/03 10:51:40;;;;;;;31.40;13.20;;;;;;;41.97;32.91;100757.31;6248061;22;20443;-76
2022/12/03 10:54:18;;;;;;;24.40;12.37;;;;;;;41.54;33.76;100763.94;6247723;22;20384;-76
2022/12/03 10:56:46;;;;;;;17.70;11.67;;;;;;;41.77;33.69;100756.22;6247772;22;20409;-78
2022/12/03 10:59:18;;;;;;;15.13;10.67;;;;;;;41.99;33.34;100755.03;6249168;22;20385;-77
2022/12/03 11:01:44;;;;;;;14.57;10.00;;;;;;;41.86;33.85;100751.47;6249881;22;20865;-77
2022/12/03 11:04:21;;;;;;;24.70;12.77;;;;;;;41.60;34.00;100757.16;6248966;22;20429;-77
2022/12/03 11:06:48;;;;;;;16.57;10.63;;;;;;;41.97;33.57;100736.31;6249753;22;20702;-77
2022/12/03 11:09:31;;;;;;;17.90;11.73;;;;;;;41.63;34.27;100737.44;6249710;22;20385;-74
2022/12/03 11:12:05;;;;;;;26.90;10.00;;;;;;;42.08;33.34;100733.94;6250223;22;20889;-74
2022/12/03 11:15:14;;;;;;;20.57;12.40;;;;;;;41.98;33.78;100737.88;6249449;22;20459;-74
2022/12/03 11:17:47;;;;;;;20.77;13.00;;;;;;;42.07;33.82;100729.63;6127883;23;20543;-75
2022/12/03 11:20:41;;;;;;;22.60;12.63;;;;;;;42.16;33.40;100729.53;6209444;23;20468;-74
2022/12/03 11:23:09;;;;;;;15.00;11.33;;;;;;;41.96;33.49;100732.00;6219296;23;20414;-75
2022/12/03 11:25:46;;;;;;;19.00;12.47;;;;;;;41.39;34.43;100726.44;6218930;23;20472;-74
2022/12/03 11:28:12;;;;;;;21.73;11.70;;;;;;;41.25;34.64;100719.34;6246370;23;20417;-74
2022/12/03 11:30:50;;;;;;;17.80;10.23;;;;;;;41.57;34.42;100714.28;6218664;23;20742;-74
2022/12/03 11:33:33;;;;;;;17.13;10.90;;;;;;;42.08;33.31;100706.69;6218676;23;20440;-74
2022/12/03 11:36:02;;;;;;;28.93;11.90;;;;;;;42.02;33.71;100703.38;6219027;23;20390;-74
2022/12/03 11:38:41;;;;;;;20.07;10.20;;;;;;;41.88;33.59;100702.13;6246283;23;20450;-75
2022/12/03 11:41:16;;;;;;;23.00;13.43;;;;;;;41.74;33.79;100700.50;6219177;23;20398;-74